Terminal Aerodrome Forecast
Issued by NWS Bismarck, ND

Home | Current Version | Previous Version | Text Only | Print | Product List | Glossary On
Versions: 1 2 3 4 5 6 7 8 9 10 11 12 13 14 15 16
000
FTUS43 KBIS 221100
TAFISN
TAF
KISN 221132Z 2212/2312 VRB03KT P6SM SKC
     FM221700 15010G17KT P6SM SKC
     FM230000 12005KT P6SM SCT100=

USA.gov is the U.S. government's official web portal to all federal, state and local government web resources and services.